sensor_id;sensor_type;location;lat;lon;timestamp;P1;durP1;ratioP1;P2;durP2;ratioP2
12880;SDS011;6508;53.786;9.996;2022-09-27T00:01:29;7.25;;;6.75;;
12880;SDS011;6508;53.786;9.996;2022-09-27T00:03:57;7.85;;;7.25;;
12880;SDS011;6508;53.786;9.996;2022-09-27T00:06:28;7.90;;;7.20;;
12880;SDS011;6508;53.786;9.996;2022-09-27T00:08:56;7.18;;;6.60;;
12880;SDS011;6508;53.786;9.996;2022-09-27T00:11:25;7.43;;;6.88;;
12880;SDS011;6508;53.786;9.996;2022-09-27T00:13:53;7.10;;;6.50;;
12880;SDS011;6508;53.786;9.996;2022-09-27T00:16:21;6.07;;;5.68;;
12880;SDS011;6508;53.786;9.996;2022-09-27T00:18:50;6.65;;;6.18;;
12880;SDS011;6508;53.786;9.996;2022-09-27T00:21:18;5.32;;;5.03;;
12880;SDS011;6508;53.786;9.996;2022-09-27T00:23:47;6.45;;;6.03;;
12880;SDS011;6508;53.786;9.996;2022-09-27T00:26:15;5.93;;;5.53;;
12880;SDS011;6508;53.786;9.996;2022-09-27T00:28:43;5.60;;;5.20;;
12880;SDS011;6508;53.786;9.996;2022-09-27T00:31:13;5.60;;;5.20;;
12880;SDS011;6508;53.786;9.996;2022-09-27T00:33:43;6.40;;;5.90;;
12880;SDS011;6508;53.786;9.996;2022-09-27T00:36:11;6.22;;;5.45;;
12880;SDS011;6508;53.786;9.996;2022-09-27T00:38:39;6.03;;;5.55;;
12880;SDS011;6508;53.786;9.996;2022-09-27T00:41:09;5.32;;;4.90;;
12880;SDS011;6508;53.786;9.996;2022-09-27T00:43:44;5.97;;;5.53;;
12880;SDS011;6508;53.786;9.996;2022-09-27T00:46:12;6.15;;;5.55;;
12880;SDS011;6508;53.786;9.996;2022-09-27T00:48:43;5.88;;;5.38;;
12880;SDS011;6508;53.786;9.996;2022-09-27T00:51:12;6.28;;;5.78;;
12880;SDS011;6508;53.786;9.996;2022-09-27T00:53:41;5.55;;;5.07;;
12880;SDS011;6508;53.786;9.996;2022-09-27T00:56:14;5.60;;;5.20;;
12880;SDS011;6508;53.786;9.996;2022-09-27T00:58:43;5.95;;;5.55;;
12880;SDS011;6508;53.786;9.996;2022-09-27T01:01:12;5.93;;;5.47;;
12880;SDS011;6508;53.786;9.996;2022-09-27T01:03:42;5.63;;;5.18;;
12880;SDS011;6508;53.786;9.996;2022-09-27T01:06:11;5.57;;;5.18;;
12880;SDS011;6508;53.786;9.996;2022-09-27T01:08:39;5.90;;;5.50;;
12880;SDS011;6508;53.786;9.996;2022-09-27T01:11:13;6.10;;;5.57;;
12880;SDS011;6508;53.786;9.996;2022-09-27T01:13:44;5.97;;;5.57;;
12880;SDS011;6508;53.786;9.996;2022-09-27T01:16:17;6.55;;;6.05;;
12880;SDS011;6508;53.786;9.996;2022-09-27T01:18:51;6.25;;;5.85;;
12880;SDS011;6508;53.786;9.996;2022-09-27T01:21:23;6.18;;;5.78;;
12880;SDS011;6508;53.786;9.996;2022-09-27T01:24:05;6.25;;;5.65;;
12880;SDS011;6508;53.786;9.996;2022-09-27T01:26:46;5.57;;;5.10;;
12880;SDS011;6508;53.786;9.996;2022-09-27T01:29:24;6.38;;;5.25;;
12880;SDS011;6508;53.786;9.996;2022-09-27T01:31:57;5.40;;;5.00;;
12880;SDS011;6508;53.786;9.996;2022-09-27T01:34:29;5.63;;;5.22;;
12880;SDS011;6508;53.786;9.996;2022-09-27T01:37:01;6.45;;;5.95;;
12880;SDS011;6508;53.786;9.996;2022-09-27T01:39:36;5.90;;;5.43;;
12880;SDS011;6508;53.786;9.996;2022-09-27T01:42:28;9.70;;;6.45;;
12880;SDS011;6508;53.786;9.996;2022-09-27T01:44:59;6.93;;;6.32;;
12880;SDS011;6508;53.786;9.996;2022-09-27T01:47:38;6.80;;;6.30;;
12880;SDS011;6508;53.786;9.996;2022-09-27T01:50:29;7.30;;;6.70;;
12880;SDS011;6508;53.786;9.996;2022-09-27T01:52:59;6.80;;;6.22;;
12880;SDS011;6508;53.786;9.996;2022-09-27T01:55:37;7.05;;;6.55;;
12880;SDS011;6508;53.786;9.996;2022-09-27T01:58:28;6.93;;;6.32;;
12880;SDS011;6508;53.786;9.996;2022-09-27T02:00:58;6.80;;;6.28;;
12880;SDS011;6508;53.786;9.996;2022-09-27T02:03:29;6.90;;;6.32;;
12880;SDS011;6508;53.786;9.996;2022-09-27T02:06:24;6.72;;;6.13;;
12880;SDS011;6508;53.786;9.996;2022-09-27T02:09:02;6.90;;;6.40;;
12880;SDS011;6508;53.786;9.996;2022-09-27T02:11:51;7.25;;;6.63;;
12880;SDS011;6508;53.786;9.996;2022-09-27T02:14:24;7.47;;;6.88;;
12880;SDS011;6508;53.786;9.996;2022-09-27T02:16:58;8.00;;;7.30;;
12880;SDS011;6508;53.786;9.996;2022-09-27T02:19:31;8.23;;;7.57;;
12880;SDS011;6508;53.786;9.996;2022-09-27T02:22:03;7.80;;;6.95;;
12880;SDS011;6508;53.786;9.996;2022-09-27T02:24:35;7.45;;;6.78;;
12880;SDS011;6508;53.786;9.996;2022-09-27T02:27:05;6.85;;;6.25;;
12880;SDS011;6508;53.786;9.996;2022-09-27T02:29:37;6.95;;;6.35;;
12880;SDS011;6508;53.786;9.996;2022-09-27T02:32:07;7.45;;;6.75;;
12880;SDS011;6508;53.786;9.996;2022-09-27T02:34:36;7.60;;;7.03;;
12880;SDS011;6508;53.786;9.996;2022-09-27T02:37:06;7.80;;;6.88;;
12880;SDS011;6508;53.786;9.996;2022-09-27T02:39:34;7.15;;;6.55;;
12880;SDS011;6508;53.786;9.996;2022-09-27T02:42:04;7.72;;;7.03;;
12880;SDS011;6508;53.786;9.996;2022-09-27T02:44:34;7.80;;;7.10;;
12880;SDS011;6508;53.786;9.996;2022-09-27T02:47:07;8.68;;;7.88;;
12880;SDS011;6508;53.786;9.996;2022-09-27T02:49:46;7.63;;;6.93;;
12880;SDS011;6508;53.786;9.996;2022-09-27T02:52:49;6.97;;;6.43;;
12880;SDS011;6508;53.786;9.996;2022-09-27T02:55:23;7.72;;;7.00;;
12880;SDS011;6508;53.786;9.996;2022-09-27T02:58:03;7.30;;;6.70;;
12880;SDS011;6508;53.786;9.996;2022-09-27T03:00:50;8.05;;;7.32;;
12880;SDS011;6508;53.786;9.996;2022-09-27T03:03:41;7.90;;;7.20;;
12880;SDS011;6508;53.786;9.996;2022-09-27T03:06:13;7.18;;;6.57;;
12880;SDS011;6508;53.786;9.996;2022-09-27T03:08:42;7.88;;;7.18;;
12880;SDS011;6508;53.786;9.996;2022-09-27T03:11:10;7.57;;;6.97;;
12880;SDS011;6508;53.786;9.996;2022-09-27T03:13:38;8.20;;;7.50;;
12880;SDS011;6508;53.786;9.996;2022-09-27T03:16:26;7.15;;;6.55;;
12880;SDS011;6508;53.786;9.996;2022-09-27T03:19:07;7.72;;;7.03;;
12880;SDS011;6508;53.786;9.996;2022-09-27T03:21:51;6.82;;;6.30;;
12880;SDS011;6508;53.786;9.996;2022-09-27T03:24:19;6.38;;;5.88;;
12880;SDS011;6508;53.786;9.996;2022-09-27T03:26:47;6.28;;;5.78;;
12880;SDS011;6508;53.786;9.996;2022-09-27T03:29:15;6.40;;;5.90;;
12880;SDS011;6508;53.786;9.996;2022-09-27T03:31:48;6.65;;;6.05;;
12880;SDS011;6508;53.786;9.996;2022-09-27T03:34:30;7.30;;;6.70;;
12880;SDS011;6508;53.786;9.996;2022-09-27T03:37:00;7.25;;;6.63;;
12880;SDS011;6508;53.786;9.996;2022-09-27T03:39:28;6.57;;;5.95;;
12880;SDS011;6508;53.786;9.996;2022-09-27T03:41:55;6.80;;;6.20;;
12880;SDS011;6508;53.786;9.996;2022-09-27T03:44:23;5.65;;;5.18;;
12880;SDS011;6508;53.786;9.996;2022-09-27T03:46:51;6.63;;;5.78;;
12880;SDS011;6508;53.786;9.996;2022-09-27T03:49:18;6.45;;;5.85;;
12880;SDS011;6508;53.786;9.996;2022-09-27T03:51:46;6.40;;;5.80;;
12880;SDS011;6508;53.786;9.996;2022-09-27T03:54:15;6.07;;;5.57;;
12880;SDS011;6508;53.786;9.996;2022-09-27T03:56:43;7.55;;;6.15;;
12880;SDS011;6508;53.786;9.996;2022-09-27T03:59:11;7.03;;;6.32;;
12880;SDS011;6508;53.786;9.996;2022-09-27T04:02:02;7.00;;;6.40;;
12880;SDS011;6508;53.786;9.996;2022-09-27T04:04:50;9.27;;;6.72;;
12880;SDS011;6508;53.786;9.996;2022-09-27T04:07:18;7.28;;;6.57;;
12880;SDS011;6508;53.786;9.996;2022-09-27T04:09:47;7.00;;;6.40;;
12880;SDS011;6508;53.786;9.996;2022-09-27T04:12:15;7.25;;;6.55;;
12880;SDS011;6508;53.786;9.996;2022-09-27T04:14:43;6.95;;;6.25;;
12880;SDS011;6508;53.786;9.996;2022-09-27T04:17:30;6.32;;;5.72;;
12880;SDS011;6508;53.786;9.996;2022-09-27T04:20:16;7.68;;;6.85;;
12880;SDS011;6508;53.786;9.996;2022-09-27T04:22:44;7.82;;;6.63;;
12880;SDS011;6508;53.786;9.996;2022-09-27T04:25:13;8.25;;;7.07;;
12880;SDS011;6508;53.786;9.996;2022-09-27T04:27:42;7.72;;;7.03;;
12880;SDS011;6508;53.786;9.996;2022-09-27T04:30:11;7.90;;;7.10;;
12880;SDS011;6508;53.786;9.996;2022-09-27T04:33:11;7.70;;;6.20;;
12880;SDS011;6508;53.786;9.996;2022-09-27T04:35:57;7.90;;;7.07;;
12880;SDS011;6508;53.786;9.996;2022-09-27T04:38:58;9.15;;;7.43;;
12880;SDS011;6508;53.786;9.996;2022-09-27T04:41:28;8.02;;;7.22;;
12880;SDS011;6508;53.786;9.996;2022-09-27T04:43:56;7.28;;;6.30;;
12880;SDS011;6508;53.786;9.996;2022-09-27T04:46:26;6.93;;;6.22;;
12880;SDS011;6508;53.786;9.996;2022-09-27T04:48:57;8.18;;;7.47;;
12880;SDS011;6508;53.786;9.996;2022-09-27T04:51:25;11.13;;;7.80;;
12880;SDS011;6508;53.786;9.996;2022-09-27T04:53:54;11.10;;;9.97;;
12880;SDS011;6508;53.786;9.996;2022-09-27T04:56:25;10.90;;;8.02;;
12880;SDS011;6508;53.786;9.996;2022-09-27T04:58:54;10.63;;;8.10;;
12880;SDS011;6508;53.786;9.996;2022-09-27T05:01:22;12.27;;;8.02;;
12880;SDS011;6508;53.786;9.996;2022-09-27T05:04:11;9.82;;;7.95;;
12880;SDS011;6508;53.786;9.996;2022-09-27T05:06:42;11.57;;;8.75;;
12880;SDS011;6508;53.786;9.996;2022-09-27T05:09:27;14.07;;;9.38;;
12880;SDS011;6508;53.786;9.996;2022-09-27T05:11:55;12.35;;;9.25;;
12880;SDS011;6508;53.786;9.996;2022-09-27T05:14:43;10.80;;;8.40;;
12880;SDS011;6508;53.786;9.996;2022-09-27T05:17:13;13.55;;;9.32;;
12880;SDS011;6508;53.786;9.996;2022-09-27T05:20:00;12.73;;;9.70;;
12880;SDS011;6508;53.786;9.996;2022-09-27T05:22:39;12.75;;;9.43;;
12880;SDS011;6508;53.786;9.996;2022-09-27T05:25:07;14.98;;;9.88;;
12880;SDS011;6508;53.786;9.996;2022-09-27T05:27:35;13.43;;;9.18;;
12880;SDS011;6508;53.786;9.996;2022-09-27T05:30:04;13.43;;;9.27;;
12880;SDS011;6508;53.786;9.996;2022-09-27T05:32:44;12.93;;;9.10;;
12880;SDS011;6508;53.786;9.996;2022-09-27T05:35:52;14.10;;;9.73;;
12880;SDS011;6508;53.786;9.996;2022-09-27T05:38:23;15.70;;;10.32;;
12880;SDS011;6508;53.786;9.996;2022-09-27T05:40:54;14.30;;;10.00;;
12880;SDS011;6508;53.786;9.996;2022-09-27T05:43:23;13.60;;;9.52;;
12880;SDS011;6508;53.786;9.996;2022-09-27T05:45:53;15.07;;;10.15;;
12880;SDS011;6508;53.786;9.996;2022-09-27T05:48:21;15.20;;;9.98;;
12880;SDS011;6508;53.786;9.996;2022-09-27T05:51:02;17.00;;;10.43;;
12880;SDS011;6508;53.786;9.996;2022-09-27T05:53:30;15.55;;;9.82;;
12880;SDS011;6508;53.786;9.996;2022-09-27T05:56:00;17.13;;;10.70;;
12880;SDS011;6508;53.786;9.996;2022-09-27T05:58:39;16.05;;;10.80;;
12880;SDS011;6508;53.786;9.996;2022-09-27T06:01:15;15.45;;;10.38;;
12880;SDS011;6508;53.786;9.996;2022-09-27T06:04:09;16.58;;;10.60;;
12880;SDS011;6508;53.786;9.996;2022-09-27T06:06:54;17.05;;;11.05;;
12880;SDS011;6508;53.786;9.996;2022-09-27T06:09:24;16.30;;;10.38;;
12880;SDS011;6508;53.786;9.996;2022-09-27T06:11:54;15.25;;;10.68;;
12880;SDS011;6508;53.786;9.996;2022-09-27T06:14:22;16.13;;;10.30;;
12880;SDS011;6508;53.786;9.996;2022-09-27T06:17:14;15.07;;;9.95;;
12880;SDS011;6508;53.786;9.996;2022-09-27T06:19:43;15.48;;;10.23;;
12880;SDS011;6508;53.786;9.996;2022-09-27T06:22:13;16.50;;;10.88;;
12880;SDS011;6508;53.786;9.996;2022-09-27T06:24:51;16.48;;;9.82;;
12880;SDS011;6508;53.786;9.996;2022-09-27T06:27:22;16.88;;;9.77;;
12880;SDS011;6508;53.786;9.996;2022-09-27T06:30:14;15.68;;;9.82;;
12880;SDS011;6508;53.786;9.996;2022-09-27T06:32:55;16.05;;;9.95;;
12880;SDS011;6508;53.786;9.996;2022-09-27T06:35:29;16.77;;;10.25;;
12880;SDS011;6508;53.786;9.996;2022-09-27T06:37:57;18.10;;;9.85;;
12880;SDS011;6508;53.786;9.996;2022-09-27T06:40:25;17.85;;;10.35;;
12880;SDS011;6508;53.786;9.996;2022-09-27T06:43:11;21.48;;;11.32;;
12880;SDS011;6508;53.786;9.996;2022-09-27T06:45:59;22.75;;;11.07;;
12880;SDS011;6508;53.786;9.996;2022-09-27T06:48:52;19.30;;;10.73;;
12880;SDS011;6508;53.786;9.996;2022-09-27T06:51:20;20.48;;;11.13;;
12880;SDS011;6508;53.786;9.996;2022-09-27T06:53:48;20.70;;;10.93;;
12880;SDS011;6508;53.786;9.996;2022-09-27T06:56:16;18.95;;;10.05;;
12880;SDS011;6508;53.786;9.996;2022-09-27T06:58:48;16.73;;;8.85;;
12880;SDS011;6508;53.786;9.996;2022-09-27T07:01:54;13.98;;;8.18;;
12880;SDS011;6508;53.786;9.996;2022-09-27T07:04:23;11.23;;;7.47;;
12880;SDS011;6508;53.786;9.996;2022-09-27T07:07:10;12.35;;;7.68;;
12880;SDS011;6508;53.786;9.996;2022-09-27T07:09:46;10.63;;;5.93;;
12880;SDS011;6508;53.786;9.996;2022-09-27T07:12:14;9.20;;;5.43;;
12880;SDS011;6508;53.786;9.996;2022-09-27T07:14:41;11.18;;;5.20;;
12880;SDS011;6508;53.786;9.996;2022-09-27T07:17:12;6.72;;;4.65;;
12880;SDS011;6508;53.786;9.996;2022-09-27T07:19:44;9.95;;;5.72;;
12880;SDS011;6508;53.786;9.996;2022-09-27T07:22:12;8.57;;;5.63;;
12880;SDS011;6508;53.786;9.996;2022-09-27T07:24:42;15.82;;;6.38;;
12880;SDS011;6508;53.786;9.996;2022-09-27T07:27:11;11.77;;;7.00;;
12880;SDS011;6508;53.786;9.996;2022-09-27T07:29:39;12.77;;;7.28;;
12880;SDS011;6508;53.786;9.996;2022-09-27T07:32:07;17.50;;;7.85;;
12880;SDS011;6508;53.786;9.996;2022-09-27T07:34:36;16.00;;;8.25;;
12880;SDS011;6508;53.786;9.996;2022-09-27T07:37:06;11.65;;;7.60;;
12880;SDS011;6508;53.786;9.996;2022-09-27T07:39:37;19.35;;;8.57;;
12880;SDS011;6508;53.786;9.996;2022-09-27T07:42:05;18.88;;;8.75;;
12880;SDS011;6508;53.786;9.996;2022-09-27T07:44:37;16.17;;;8.13;;
12880;SDS011;6508;53.786;9.996;2022-09-27T07:47:28;12.75;;;7.97;;
12880;SDS011;6508;53.786;9.996;2022-09-27T07:50:04;13.05;;;8.00;;
12880;SDS011;6508;53.786;9.996;2022-09-27T07:52:49;12.63;;;7.28;;
12880;SDS011;6508;53.786;9.996;2022-09-27T07:55:32;16.63;;;7.13;;
12880;SDS011;6508;53.786;9.996;2022-09-27T07:58:17;11.25;;;6.78;;
12880;SDS011;6508;53.786;9.996;2022-09-27T08:00:45;15.48;;;8.02;;
12880;SDS011;6508;53.786;9.996;2022-09-27T08:03:14;10.32;;;6.95;;
12880;SDS011;6508;53.786;9.996;2022-09-27T08:05:45;15.88;;;7.90;;
12880;SDS011;6508;53.786;9.996;2022-09-27T08:08:15;9.63;;;6.60;;
12880;SDS011;6508;53.786;9.996;2022-09-27T08:10:44;11.88;;;6.65;;
12880;SDS011;6508;53.786;9.996;2022-09-27T08:13:13;9.02;;;6.70;;
12880;SDS011;6508;53.786;9.996;2022-09-27T08:15:43;13.57;;;7.00;;
12880;SDS011;6508;53.786;9.996;2022-09-27T08:18:11;13.02;;;6.68;;
12880;SDS011;6508;53.786;9.996;2022-09-27T08:20:57;10.02;;;7.00;;
12880;SDS011;6508;53.786;9.996;2022-09-27T08:23:42;9.18;;;6.35;;
12880;SDS011;6508;53.786;9.996;2022-09-27T08:26:29;10.73;;;6.43;;
12880;SDS011;6508;53.786;9.996;2022-09-27T08:29:23;11.20;;;6.13;;
12880;SDS011;6508;53.786;9.996;2022-09-27T08:31:53;9.35;;;6.40;;
12880;SDS011;6508;53.786;9.996;2022-09-27T08:34:21;10.25;;;6.07;;
12880;SDS011;6508;53.786;9.996;2022-09-27T08:36:49;6.68;;;5.82;;
12880;SDS011;6508;53.786;9.996;2022-09-27T08:39:18;10.27;;;6.03;;
12880;SDS011;6508;53.786;9.996;2022-09-27T08:41:49;8.65;;;5.75;;
12880;SDS011;6508;53.786;9.996;2022-09-27T08:44:20;6.68;;;5.53;;
12880;SDS011;6508;53.786;9.996;2022-09-27T08:47:03;12.57;;;5.53;;
12880;SDS011;6508;53.786;9.996;2022-09-27T08:49:35;8.57;;;4.80;;
12880;SDS011;6508;53.786;9.996;2022-09-27T08:52:03;7.43;;;4.28;;
12880;SDS011;6508;53.786;9.996;2022-09-27T08:54:34;4.97;;;3.95;;
12880;SDS011;6508;53.786;9.996;2022-09-27T08:57:02;6.03;;;3.78;;
12880;SDS011;6508;53.786;9.996;2022-09-27T08:59:33;7.47;;;4.28;;
12880;SDS011;6508;53.786;9.996;2022-09-27T09:02:02;9.05;;;3.83;;
12880;SDS011;6508;53.786;9.996;2022-09-27T09:04:34;6.70;;;4.30;;
12880;SDS011;6508;53.786;9.996;2022-09-27T09:07:07;8.85;;;4.70;;
12880;SDS011;6508;53.786;9.996;2022-09-27T09:09:41;5.45;;;4.93;;
12880;SDS011;6508;53.786;9.996;2022-09-27T09:12:18;8.38;;;5.45;;
12880;SDS011;6508;53.786;9.996;2022-09-27T09:15:34;8.75;;;5.25;;
12880;SDS011;6508;53.786;9.996;2022-09-27T09:18:25;9.82;;;5.93;;
12880;SDS011;6508;53.786;9.996;2022-09-27T09:21:05;9.80;;;6.25;;
12880;SDS011;6508;53.786;9.996;2022-09-27T09:23:40;9.85;;;6.28;;
12880;SDS011;6508;53.786;9.996;2022-09-27T09:26:12;5.82;;;5.15;;
12880;SDS011;6508;53.786;9.996;2022-09-27T09:28:46;6.97;;;4.70;;
12880;SDS011;6508;53.786;9.996;2022-09-27T09:31:18;6.95;;;4.88;;
12880;SDS011;6508;53.786;9.996;2022-09-27T09:33:51;8.57;;;4.97;;
12880;SDS011;6508;53.786;9.996;2022-09-27T09:36:23;5.90;;;5.35;;
12880;SDS011;6508;53.786;9.996;2022-09-27T09:38:52;8.10;;;4.68;;
12880;SDS011;6508;53.786;9.996;2022-09-27T09:41:25;4.28;;;2.97;;
12880;SDS011;6508;53.786;9.996;2022-09-27T09:43:55;4.05;;;3.00;;
12880;SDS011;6508;53.786;9.996;2022-09-27T09:46:25;3.80;;;2.42;;
12880;SDS011;6508;53.786;9.996;2022-09-27T09:48:56;3.25;;;2.10;;
12880;SDS011;6508;53.786;9.996;2022-09-27T09:51:34;2.40;;;2.03;;
12880;SDS011;6508;53.786;9.996;2022-09-27T09:54:04;2.50;;;2.13;;
12880;SDS011;6508;53.786;9.996;2022-09-27T09:56:37;9.75;;;2.55;;
12880;SDS011;6508;53.786;9.996;2022-09-27T09:59:09;4.53;;;2.03;;
12880;SDS011;6508;53.786;9.996;2022-09-27T10:01:41;15.23;;;2.80;;
12880;SDS011;6508;53.786;9.996;2022-09-27T10:04:09;1.60;;;1.50;;
12880;SDS011;6508;53.786;9.996;2022-09-27T10:06:39;13.50;;;2.35;;
12880;SDS011;6508;53.786;9.996;2022-09-27T10:09:07;2.30;;;1.60;;
12880;SDS011;6508;53.786;9.996;2022-09-27T10:11:42;2.42;;;1.30;;
12880;SDS011;6508;53.786;9.996;2022-09-27T10:14:27;2.58;;;1.30;;
12880;SDS011;6508;53.786;9.996;2022-09-27T10:17:00;2.53;;;1.80;;
12880;SDS011;6508;53.786;9.996;2022-09-27T10:19:29;2.38;;;1.30;;
12880;SDS011;6508;53.786;9.996;2022-09-27T10:22:00;1.80;;;1.70;;
12880;SDS011;6508;53.786;9.996;2022-09-27T10:24:29;1.52;;;1.33;;
12880;SDS011;6508;53.786;9.996;2022-09-27T10:27:38;1.60;;;1.50;;
12880;SDS011;6508;53.786;9.996;2022-09-27T10:30:19;1.48;;;1.48;;
12880;SDS011;6508;53.786;9.996;2022-09-27T10:32:49;1.70;;;1.60;;
12880;SDS011;6508;53.786;9.996;2022-09-27T10:35:36;1.48;;;1.45;;
12880;SDS011;6508;53.786;9.996;2022-09-27T10:38:11;1.98;;;1.50;;
12880;SDS011;6508;53.786;9.996;2022-09-27T10:40:43;1.50;;;1.40;;
12880;SDS011;6508;53.786;9.996;2022-09-27T10:43:22;1.25;;;1.25;;
12880;SDS011;6508;53.786;9.996;2022-09-27T10:46:05;0.93;;;0.93;;
12880;SDS011;6508;53.786;9.996;2022-09-27T10:48:36;1.00;;;0.90;;
12880;SDS011;6508;53.786;9.996;2022-09-27T10:51:05;1.27;;;1.05;;
12880;SDS011;6508;53.786;9.996;2022-09-27T10:53:43;1.00;;;1.00;;
12880;SDS011;6508;53.786;9.996;2022-09-27T10:56:19;1.25;;;1.25;;
12880;SDS011;6508;53.786;9.996;2022-09-27T10:58:49;0.80;;;0.80;;
12880;SDS011;6508;53.786;9.996;2022-09-27T11:01:18;1.00;;;1.00;;
12880;SDS011;6508;53.786;9.996;2022-09-27T11:04:03;1.30;;;1.02;;
12880;SDS011;6508;53.786;9.996;2022-09-27T11:06:32;1.40;;;1.30;;
12880;SDS011;6508;53.786;9.996;2022-09-27T11:09:09;3.97;;;1.60;;
12880;SDS011;6508;53.786;9.996;2022-09-27T11:11:45;1.65;;;1.30;;
12880;SDS011;6508;53.786;9.996;2022-09-27T11:14:18;1.67;;;1.05;;
12880;SDS011;6508;53.786;9.996;2022-09-27T11:17:05;1.38;;;1.27;;
12880;SDS011;6508;53.786;9.996;2022-09-27T11:19:44;1.20;;;1.20;;
12880;SDS011;6508;53.786;9.996;2022-09-27T11:22:20;1.05;;;1.02;;
12880;SDS011;6508;53.786;9.996;2022-09-27T11:24:55;1.50;;;1.40;;
12880;SDS011;6508;53.786;9.996;2022-09-27T11:27:30;1.00;;;1.00;;
12880;SDS011;6508;53.786;9.996;2022-09-27T11:30:06;1.50;;;1.20;;
12880;SDS011;6508;53.786;9.996;2022-09-27T11:32:45;1.00;;;1.00;;
12880;SDS011;6508;53.786;9.996;2022-09-27T11:35:23;1.20;;;1.00;;
12880;SDS011;6508;53.786;9.996;2022-09-27T11:37:59;1.60;;;1.00;;
12880;SDS011;6508;53.786;9.996;2022-09-27T11:40:30;1.55;;;1.00;;
12880;SDS011;6508;53.786;9.996;2022-09-27T11:45:54;1.27;;;1.23;;
12880;SDS011;6508;53.786;9.996;2022-09-27T11:48:49;1.20;;;1.10;;
12880;SDS011;6508;53.786;9.996;2022-09-27T11:51:22;1.75;;;1.10;;
12880;SDS011;6508;53.786;9.996;2022-09-27T11:53:56;1.00;;;1.00;;
12880;SDS011;6508;53.786;9.996;2022-09-27T11:56:33;1.10;;;1.10;;
12880;SDS011;6508;53.786;9.996;2022-09-27T11:59:07;3.35;;;1.50;;
12880;SDS011;6508;53.786;9.996;2022-09-27T12:01:41;1.08;;;1.00;;
12880;SDS011;6508;53.786;9.996;2022-09-27T12:04:18;1.20;;;1.20;;
12880;SDS011;6508;53.786;9.996;2022-09-27T12:06:53;1.85;;;1.13;;
12880;SDS011;6508;53.786;9.996;2022-09-27T12:09:27;1.85;;;1.08;;
12880;SDS011;6508;53.786;9.996;2022-09-27T12:11:56;1.48;;;1.35;;
12880;SDS011;6508;53.786;9.996;2022-09-27T12:14:27;2.00;;;1.38;;
12880;SDS011;6508;53.786;9.996;2022-09-27T12:17:00;1.27;;;1.27;;
12880;SDS011;6508;53.786;9.996;2022-09-27T12:19:31;1.90;;;1.80;;
12880;SDS011;6508;53.786;9.996;2022-09-27T12:22:05;2.22;;;2.13;;
12880;SDS011;6508;53.786;9.996;2022-09-27T12:24:38;2.40;;;2.30;;
12880;SDS011;6508;53.786;9.996;2022-09-27T12:27:23;2.50;;;2.30;;
12880;SDS011;6508;53.786;9.996;2022-09-27T12:29:54;3.17;;;2.97;;
12880;SDS011;6508;53.786;9.996;2022-09-27T12:32:25;2.70;;;2.50;;
12880;SDS011;6508;53.786;9.996;2022-09-27T12:34:59;2.60;;;2.47;;
12880;SDS011;6508;53.786;9.996;2022-09-27T12:37:30;3.25;;;3.05;;
12880;SDS011;6508;53.786;9.996;2022-09-27T12:40:00;3.13;;;2.92;;
12880;SDS011;6508;53.786;9.996;2022-09-27T12:42:35;3.20;;;2.83;;
12880;SDS011;6508;53.786;9.996;2022-09-27T12:45:11;10.27;;;8.80;;
12880;SDS011;6508;53.786;9.996;2022-09-27T12:47:44;3.58;;;3.28;;
12880;SDS011;6508;53.786;9.996;2022-09-27T12:50:20;4.18;;;2.13;;
12880;SDS011;6508;53.786;9.996;2022-09-27T12:52:49;3.60;;;2.85;;
12880;SDS011;6508;53.786;9.996;2022-09-27T12:55:26;2.70;;;2.38;;
12880;SDS011;6508;53.786;9.996;2022-09-27T12:58:08;25.95;;;15.65;;
12880;SDS011;6508;53.786;9.996;2022-09-27T13:00:39;4.78;;;3.63;;
12880;SDS011;6508;53.786;9.996;2022-09-27T13:03:22;4.45;;;4.03;;
12880;SDS011;6508;53.786;9.996;2022-09-27T13:06:12;3.55;;;3.25;;
12880;SDS011;6508;53.786;9.996;2022-09-27T13:11:35;4.82;;;3.13;;
12880;SDS011;6508;53.786;9.996;2022-09-27T13:14:05;2.25;;;2.10;;
12880;SDS011;6508;53.786;9.996;2022-09-27T13:16:40;2.47;;;2.28;;
12880;SDS011;6508;53.786;9.996;2022-09-27T13:19:16;2.70;;;2.50;;
12880;SDS011;6508;53.786;9.996;2022-09-27T13:22:04;2.65;;;2.45;;
12880;SDS011;6508;53.786;9.996;2022-09-27T13:24:44;1.70;;;1.60;;
12880;SDS011;6508;53.786;9.996;2022-09-27T13:27:41;2.15;;;1.40;;
12880;SDS011;6508;53.786;9.996;2022-09-27T13:36:31;2.20;;;1.23;;
12880;SDS011;6508;53.786;9.996;2022-09-27T13:39:17;1.98;;;1.88;;
12880;SDS011;6508;53.786;9.996;2022-09-27T13:42:21;4.63;;;3.13;;
12880;SDS011;6508;53.786;9.996;2022-09-27T13:45:08;2.03;;;1.55;;
12880;SDS011;6508;53.786;9.996;2022-09-27T13:47:44;1.33;;;1.20;;
12880;SDS011;6508;53.786;9.996;2022-09-27T13:50:23;3.72;;;1.23;;
12880;SDS011;6508;53.786;9.996;2022-09-27T13:53:05;0.90;;;0.90;;
12880;SDS011;6508;53.786;9.996;2022-09-27T13:55:39;0.85;;;0.82;;
12880;SDS011;6508;53.786;9.996;2022-09-27T13:58:12;1.52;;;1.42;;
12880;SDS011;6508;53.786;9.996;2022-09-27T14:00:42;1.50;;;1.40;;
12880;SDS011;6508;53.786;9.996;2022-09-27T14:03:13;2.42;;;1.02;;
12880;SDS011;6508;53.786;9.996;2022-09-27T14:06:04;1.95;;;1.30;;
12880;SDS011;6508;53.786;9.996;2022-09-27T14:08:37;1.23;;;1.13;;
12880;SDS011;6508;53.786;9.996;2022-09-27T14:11:09;1.42;;;1.33;;
12880;SDS011;6508;53.786;9.996;2022-09-27T14:13:38;1.45;;;1.17;;
12880;SDS011;6508;53.786;9.996;2022-09-27T14:16:12;4.22;;;3.92;;
12880;SDS011;6508;53.786;9.996;2022-09-27T14:18:42;2.75;;;1.88;;
12880;SDS011;6508;53.786;9.996;2022-09-27T14:21:15;1.63;;;1.50;;
12880;SDS011;6508;53.786;9.996;2022-09-27T14:24:17;2.78;;;1.20;;
12880;SDS011;6508;53.786;9.996;2022-09-27T14:26:46;1.58;;;1.30;;
12880;SDS011;6508;53.786;9.996;2022-09-27T14:29:15;1.60;;;1.00;;
12880;SDS011;6508;53.786;9.996;2022-09-27T14:31:43;1.73;;;1.17;;
12880;SDS011;6508;53.786;9.996;2022-09-27T14:34:16;1.13;;;1.13;;
12880;SDS011;6508;53.786;9.996;2022-09-27T14:36:46;1.35;;;1.02;;
12880;SDS011;6508;53.786;9.996;2022-09-27T14:39:44;1.38;;;1.23;;
12880;SDS011;6508;53.786;9.996;2022-09-27T14:42:28;1.00;;;1.00;;
12880;SDS011;6508;53.786;9.996;2022-09-27T14:45:06;1.60;;;1.10;;
12880;SDS011;6508;53.786;9.996;2022-09-27T14:47:43;1.52;;;1.27;;
12880;SDS011;6508;53.786;9.996;2022-09-27T14:50:12;2.42;;;2.33;;
12880;SDS011;6508;53.786;9.996;2022-09-27T14:52:44;1.45;;;1.35;;
12880;SDS011;6508;53.786;9.996;2022-09-27T14:55:16;2.90;;;2.70;;
12880;SDS011;6508;53.786;9.996;2022-09-27T14:57:44;2.75;;;2.20;;
12880;SDS011;6508;53.786;9.996;2022-09-27T15:00:17;3.85;;;3.65;;
12880;SDS011;6508;53.786;9.996;2022-09-27T15:02:46;10.43;;;9.15;;
12880;SDS011;6508;53.786;9.996;2022-09-27T15:05:14;3.95;;;2.78;;
12880;SDS011;6508;53.786;9.996;2022-09-27T15:07:42;4.32;;;4.03;;
12880;SDS011;6508;53.786;9.996;2022-09-27T15:10:12;1.90;;;1.80;;
12880;SDS011;6508;53.786;9.996;2022-09-27T15:12:43;4.10;;;3.70;;
12880;SDS011;6508;53.786;9.996;2022-09-27T15:15:14;3.97;;;3.58;;
12880;SDS011;6508;53.786;9.996;2022-09-27T15:17:42;5.07;;;4.63;;
12880;SDS011;6508;53.786;9.996;2022-09-27T15:20:18;8.30;;;7.40;;
12880;SDS011;6508;53.786;9.996;2022-09-27T15:22:47;5.95;;;5.47;;
12880;SDS011;6508;53.786;9.996;2022-09-27T15:25:16;3.88;;;3.58;;
12880;SDS011;6508;53.786;9.996;2022-09-27T15:27:47;2.97;;;2.10;;
12880;SDS011;6508;53.786;9.996;2022-09-27T15:30:16;2.13;;;1.60;;
12880;SDS011;6508;53.786;9.996;2022-09-27T15:32:47;2.50;;;2.08;;
12880;SDS011;6508;53.786;9.996;2022-09-27T15:35:16;1.70;;;1.60;;
12880;SDS011;6508;53.786;9.996;2022-09-27T15:37:46;2.42;;;2.15;;
12880;SDS011;6508;53.786;9.996;2022-09-27T15:43:18;3.03;;;2.88;;
12880;SDS011;6508;53.786;9.996;2022-09-27T15:45:47;16.15;;;13.90;;
12880;SDS011;6508;53.786;9.996;2022-09-27T15:48:16;5.93;;;5.53;;
12880;SDS011;6508;53.786;9.996;2022-09-27T15:50:44;17.67;;;15.35;;
12880;SDS011;6508;53.786;9.996;2022-09-27T15:53:13;7.45;;;6.80;;
12880;SDS011;6508;53.786;9.996;2022-09-27T15:56:00;4.60;;;4.20;;
12880;SDS011;6508;53.786;9.996;2022-09-27T15:58:30;4.80;;;4.50;;